Time,TemperatureF,DewpointF,PressureIn,WindDirection,WindDirectionDegrees,WindSpeedMPH,WindSpeedGustMPH,Humidity,HourlyPrecipIn,Conditions,Clouds,dailyrainin,SoftwareType,DateUTC
2013-05-14 00:03:00,46.4,24.1,-100.00,North,-999,0.0,0.0,41,0.00,,,-99.99,FreeWX-Wi 1.01,2013-05-14 07:03:00,
2013-05-14 00:08:00,46.2,24.4,-100.00,North,-999,0.0,0.0,42,0.00,,,-99.99,FreeWX-Wi 1.01,2013-05-14 07:08:00,
2013-05-14 00:13:00,45.9,24.1,-100.00,North,-999,0.0,0.0,42,0.00,,,-99.99,FreeWX-Wi 1.01,2013-05-14 07:13:00,
2013-05-14 00:18:00,45.5,24.3,-100.00,North,-999,0.0,0.0,43,0.00,,,-99.99,FreeWX-Wi 1.01,2013-05-14 07:18:00,
2013-05-14 00:23:00,45.5,24.3,-100.00,North,-999,0.0,0.0,43,0.00,,,-99.99,FreeWX-Wi 1.01,2013-05-14 07:23:00,
2013-05-14 00:28:00,45.5,24.8,-100.00,North,-999,0.0,0.0,44,0.00,,,-99.99,FreeWX-Wi 1.01,2013-05-14 07:28:00,
2013-05-14 00:33:00,45.5,24.8,-100.00,North,-999,0.0,0.0,44,0.00,,,-99.99,FreeWX-Wi 1.01,2013-05-14 07:33:00,
2013-05-14 00:38:00,45.5,24.8,-100.00,North,-999,0.0,0.0,44,0.00,,,-99.99,FreeWX-Wi 1.01,2013-05-14 07:38:00,
2013-05-14 00:43:00,45.7,25.5,-100.00,North,-999,0.0,0.0,45,0.00,,,-99.99,FreeWX-Wi 1.01,2013-05-14 07:43:00,
2013-05-14 00:48:00,45.5,24.8,-100.00,North,-999,0.0,0.0,44,0.00,,,-99.99,FreeWX-Wi 1.01,2013-05-14 07:48:00,
2013-05-14 00:53:00,46.0,26.4,-100.00,North,-999,0.0,0.0,46,0.00,,,-99.99,FreeWX-Wi 1.01,2013-05-14 07:53:00,
2013-05-14 00:58:00,46.0,26.4,-100.00,North,-999,0.0,0.0,46,0.00,,,-99.99,FreeWX-Wi 1.01,2013-05-14 07:58:00,
2013-05-14 01:03:00,46.0,25.9,-100.00,North,-999,0.0,0.0,45,0.00,,,-99.99,FreeWX-Wi 1.01,2013-05-14 08:03:00,
2013-05-14 01:08:00,46.2,26.1,-100.00,North,-999,0.0,0.0,45,0.00,,,-99.99,FreeWX-Wi 1.01,2013-05-14 08:08:00,
2013-05-14 01:13:00,46.2,26.6,-100.00,North,-999,0.0,3.1,46,0.00,,,-99.99,FreeWX-Wi 1.01,2013-05-14 08:13:00,
2013-05-14 01:18:00,46.2,26.6,-100.00,North,-999,0.0,4.0,46,0.00,,,-99.99,FreeWX-Wi 1.01,2013-05-14 08:18:00,
2013-05-14 01:24:00,46.2,26.6,-100.00,North,-999,0.0,0.0,46,0.00,,,-99.99,FreeWX-Wi 1.01,2013-05-14 08:24:00,
2013-05-14 01:29:00,46.0,26.4,-100.00,North,-999,0.0,0.0,46,0.00,,,-99.99,FreeWX-Wi 1.01,2013-05-14 08:29:00,
2013-05-14 01:34:00,45.9,26.2,-100.00,North,-999,0.0,0.0,46,0.00,,,-99.99,FreeWX-Wi 1.01,2013-05-14 08:34:00,
2013-05-14 01:39:00,45.9,26.2,-100.00,North,-999,0.0,0.0,46,0.00,,,-99.99,FreeWX-Wi 1.01,2013-05-14 08:39:00,
2013-05-14 01:44:00,45.9,26.2,-100.00,North,-999,0.0,0.0,46,0.00,,,-99.99,FreeWX-Wi 1.01,2013-05-14 08:44:00,
2013-05-14 01:49:00,45.9,26.8,-100.00,North,-999,0.0,0.0,47,0.00,,,-99.99,FreeWX-Wi 1.01,2013-05-14 08:49:00,
2013-05-14 01:54:00,46.2,27.7,-100.00,North,-999,0.0,0.0,48,0.00,,,-99.99,FreeWX-Wi 1.01,2013-05-14 08:54:00,
2013-05-14 01:59:00,46.8,27.7,-100.00,North,-999,0.0,0.0,47,0.00,,,-99.99,FreeWX-Wi 1.01,2013-05-14 08:59:00,
2013-05-14 02:04:00,47.3,28.0,-100.00,North,-999,0.0,0.0,47,0.00,,,-99.99,FreeWX-Wi 1.01,2013-05-14 09:04:00,
2013-05-14 02:09:00,47.1,27.0,-100.00,North,-999,0.0,0.0,45,0.00,,,-99.99,FreeWX-Wi 1.01,2013-05-14 09:09:00,
2013-05-14 02:14:00,47.1,25.7,-100.00,North,-999,0.0,0.0,43,0.00,,,-99.99,FreeWX-Wi 1.01,2013-05-14 09:14:00,
2013-05-14 02:19:00,47.1,25.2,-100.00,North,-999,0.0,0.0,42,0.00,,,-99.99,FreeWX-Wi 1.01,2013-05-14 09:19:00,
2013-05-14 02:24:00,46.8,25.0,-100.00,North,-999,0.0,0.0,42,0.00,,,-99.99,FreeWX-Wi 1.01,2013-05-14 09:24:00,
2013-05-14 02:29:00,46.6,24.8,-100.00,North,-999,0.0,0.0,42,0.00,,,-99.99,FreeWX-Wi 1.01,2013-05-14 09:29:00,
2013-05-14 02:35:00,46.4,24.6,-100.00,North,-999,0.0,3.1,42,0.00,,,-99.99,FreeWX-Wi 1.01,2013-05-14 09:35:00,
2013-05-14 02:40:00,46.2,25.0,-100.00,North,-999,0.0,0.0,43,0.00,,,-99.99,FreeWX-Wi 1.01,2013-05-14 09:40:00,
2013-05-14 02:45:00,46.4,25.2,-100.00,North,-999,0.0,0.0,43,0.00,,,-99.99,FreeWX-Wi 1.01,2013-05-14 09:45:00,
2013-05-14 02:50:00,46.2,25.0,-100.00,North,-999,0.0,0.0,43,0.00,,,-99.99,FreeWX-Wi 1.01,2013-05-14 09:50:00,
2013-05-14 02:55:00,46.0,24.8,-100.00,North,-999,0.0,0.0,43,0.00,,,-99.99,FreeWX-Wi 1.01,2013-05-14 09:55:00,
2013-05-14 03:00:00,45.7,24.4,-100.00,North,-999,0.0,0.0,43,0.00,,,-99.99,FreeWX-Wi 1.01,2013-05-14 10:00:00,
2013-05-14 03:05:00,45.5,24.3,-100.00,North,-999,0.0,0.0,43,0.00,,,-99.99,FreeWX-Wi 1.01,2013-05-14 10:05:00,
2013-05-14 03:11:00,45.5,24.8,-100.00,North,-999,0.0,0.0,44,0.00,,,-99.99,FreeWX-Wi 1.01,2013-05-14 10:11:00,
2013-05-14 03:16:00,45.5,24.8,-100.00,North,-999,0.0,0.0,44,0.00,,,-99.99,FreeWX-Wi 1.01,2013-05-14 10:16:00,
2013-05-14 03:21:00,45.3,24.6,-100.00,North,-999,0.0,0.0,44,0.00,,,-99.99,FreeWX-Wi 1.01,2013-05-14 10:21:00,
2013-05-14 03:26:00,45.1,25.2,-100.00,North,-999,0.0,0.0,45,0.00,,,-99.99,FreeWX-Wi 1.01,2013-05-14 10:26:00,
2013-05-14 03:31:00,45.0,25.0,-100.00,North,-999,0.0,0.0,45,0.00,,,-99.99,FreeWX-Wi 1.01,2013-05-14 10:31:00,
2013-05-14 03:36:00,44.8,24.8,-100.00,North,-999,0.0,0.0,45,0.00,,,-99.99,FreeWX-Wi 1.01,2013-05-14 10:36:00,
2013-05-14 03:41:00,44.6,24.6,-100.00,North,-999,0.0,0.0,45,0.00,,,-99.99,FreeWX-Wi 1.01,2013-05-14 10:41:00,
2013-05-14 03:46:00,44.2,24.8,-100.00,North,-999,0.0,0.0,46,0.00,,,-99.99,FreeWX-Wi 1.01,2013-05-14 10:46:00,
2013-05-14 03:51:00,44.1,24.6,-100.00,North,-999,0.0,0.0,46,0.00,,,-99.99,FreeWX-Wi 1.01,2013-05-14 10:51:00,
2013-05-14 03:56:00,43.9,24.4,-100.00,North,-999,0.0,0.0,46,0.00,,,-99.99,FreeWX-Wi 1.01,2013-05-14 10:56:00,
2013-05-14 04:01:00,43.7,24.3,-100.00,North,-999,0.0,0.0,46,0.00,,,-99.99,FreeWX-Wi 1.01,2013-05-14 11:01:00,
2013-05-14 04:07:00,43.5,24.6,-100.00,North,-999,0.0,0.0,47,0.00,,,-99.99,FreeWX-Wi 1.01,2013-05-14 11:07:00,
2013-05-14 04:12:00,43.5,24.6,-100.00,North,-999,0.0,0.0,47,0.00,,,-99.99,FreeWX-Wi 1.01,2013-05-14 11:12:00,
2013-05-14 04:17:00,43.5,24.6,-100.00,North,-999,0.0,0.0,47,0.00,,,-99.99,FreeWX-Wi 1.01,2013-05-14 11:17:00,
2013-05-14 04:22:00,43.5,25.2,-100.00,North,-999,0.0,0.0,48,0.00,,,-99.99,FreeWX-Wi 1.01,2013-05-14 11:22:00,
2013-05-14 04:27:00,43.7,25.3,-100.00,North,-999,0.0,0.0,48,0.00,,,-99.99,FreeWX-Wi 1.01,2013-05-14 11:27:00,
2013-05-14 04:32:00,43.7,25.3,-100.00,North,-999,0.0,0.0,48,0.00,,,-99.99,FreeWX-Wi 1.01,2013-05-14 11:32:00,
2013-05-14 04:37:00,43.5,25.2,-100.00,North,-999,0.0,0.0,48,0.00,,,-99.99,FreeWX-Wi 1.01,2013-05-14 11:37:00,
2013-05-14 04:42:00,43.5,25.2,-100.00,North,-999,0.0,0.0,48,0.00,,,-99.99,FreeWX-Wi 1.01,2013-05-14 11:42:00,
2013-05-14 04:47:00,43.5,25.2,-100.00,North,-999,0.0,0.0,48,0.00,,,-99.99,FreeWX-Wi 1.01,2013-05-14 11:47:00,
2013-05-14 04:52:00,43.5,25.7,-100.00,North,-999,0.0,0.0,49,0.00,,,-99.99,FreeWX-Wi 1.01,2013-05-14 11:52:00,
2013-05-14 04:57:00,43.9,26.4,-100.00,North,-999,0.0,0.0,50,0.00,,,-99.99,FreeWX-Wi 1.01,2013-05-14 11:57:00,
2013-05-14 05:02:00,44.1,27.1,-100.00,North,-999,0.0,0.0,51,0.00,,,-99.99,FreeWX-Wi 1.01,2013-05-14 12:02:00,
2013-05-14 05:07:00,44.4,27.5,-100.00,North,-999,0.0,0.0,51,0.00,,,-99.99,FreeWX-Wi 1.01,2013-05-14 12:07:00,
2013-05-14 05:12:00,44.6,27.7,-100.00,North,-999,0.0,0.0,51,0.00,,,-99.99,FreeWX-Wi 1.01,2013-05-14 12:12:00,
2013-05-14 05:17:00,44.8,27.7,-100.00,North,-999,0.0,0.0,51,0.00,,,-99.99,FreeWX-Wi 1.01,2013-05-14 12:17:00,
2013-05-14 05:22:00,45.0,27.9,-100.00,North,-999,0.0,0.0,51,0.00,,,-99.99,FreeWX-Wi 1.01,2013-05-14 12:22:00,
2013-05-14 05:27:00,45.0,27.9,-100.00,North,-999,0.0,0.0,51,0.00,,,-99.99,FreeWX-Wi 1.01,2013-05-14 12:27:00,
2013-05-14 05:33:00,45.1,28.0,-100.00,North,-999,0.0,0.0,51,0.00,,,-99.99,FreeWX-Wi 1.01,2013-05-14 12:33:00,
2013-05-14 05:38:00,45.1,27.7,-100.00,North,-999,0.0,0.0,50,0.00,,,-99.99,FreeWX-Wi 1.01,2013-05-14 12:38:00,
2013-05-14 05:43:00,45.5,28.0,-100.00,North,-999,0.0,0.0,50,0.00,,,-99.99,FreeWX-Wi 1.01,2013-05-14 12:43:00,
2013-05-14 05:48:00,45.9,28.8,-100.00,North,-999,0.0,0.0,51,0.00,,,-99.99,FreeWX-Wi 1.01,2013-05-14 12:48:00,
2013-05-14 05:53:00,46.0,28.9,-100.00,North,-999,0.0,0.0,51,0.00,,,-99.99,FreeWX-Wi 1.01,2013-05-14 12:53:00,
2013-05-14 05:58:00,46.2,29.1,-100.00,North,-999,0.0,0.0,51,0.00,,,-99.99,FreeWX-Wi 1.01,2013-05-14 12:58:00,
2013-05-14 06:03:00,46.4,28.8,-100.00,North,-999,0.0,0.0,50,0.00,,,-99.99,FreeWX-Wi 1.01,2013-05-14 13:03:00,
2013-05-14 06:08:00,46.6,28.9,-100.00,North,-999,0.0,0.0,50,0.00,,,-99.99,FreeWX-Wi 1.01,2013-05-14 13:08:00,
2013-05-14 06:13:00,46.6,28.4,-100.00,North,-999,0.0,0.0,49,0.00,,,-99.99,FreeWX-Wi 1.01,2013-05-14 13:13:00,
2013-05-14 06:18:00,46.8,28.6,-100.00,North,-999,0.0,0.0,49,0.00,,,-99.99,FreeWX-Wi 1.01,2013-05-14 13:18:00,
2013-05-14 06:23:00,46.9,28.8,-100.00,North,-999,0.0,0.0,49,0.00,,,-99.99,FreeWX-Wi 1.01,2013-05-14 13:23:00,
2013-05-14 06:28:00,47.1,28.4,-100.00,North,-999,0.0,0.0,48,0.00,,,-99.99,FreeWX-Wi 1.01,2013-05-14 13:28:00,
2013-05-14 06:33:00,47.3,28.6,-100.00,North,-999,0.0,0.0,48,0.00,,,-99.99,FreeWX-Wi 1.01,2013-05-14 13:33:00,
2013-05-14 06:38:00,47.5,28.8,-100.00,North,-999,0.0,0.0,48,0.00,,,-99.99,FreeWX-Wi 1.01,2013-05-14 13:38:00,
2013-05-14 06:43:00,47.8,29.1,-100.00,North,-999,0.0,0.0,48,0.00,,,-99.99,FreeWX-Wi 1.01,2013-05-14 13:43:00,
2013-05-14 06:48:00,48.2,28.9,-100.00,North,-999,0.0,0.0,47,0.00,,,-99.99,FreeWX-Wi 1.01,2013-05-14 13:48:00,
2013-05-14 06:53:00,48.6,29.3,-100.00,North,-999,0.0,0.0,47,0.00,,,-99.99,FreeWX-Wi 1.01,2013-05-14 13:53:00,
2013-05-14 06:58:00,48.9,29.7,-100.00,North,-999,0.0,0.0,47,0.00,,,-99.99,FreeWX-Wi 1.01,2013-05-14 13:58:00,
2013-05-14 07:03:00,49.3,29.3,-100.00,North,-999,0.0,0.0,46,0.00,,,-99.99,FreeWX-Wi 1.01,2013-05-14 14:03:00,
2013-05-14 07:08:00,49.5,29.5,-100.00,North,-999,0.0,0.0,46,0.00,,,-99.99,FreeWX-Wi 1.01,2013-05-14 14:08:00,
2013-05-14 07:13:00,49.8,29.3,-100.00,North,-999,0.0,0.0,45,0.00,,,-99.99,FreeWX-Wi 1.01,2013-05-14 14:13:00,
2013-05-14 07:18:00,50.2,29.1,-100.00,North,-999,0.0,0.0,44,0.00,,,-99.99,FreeWX-Wi 1.01,2013-05-14 14:18:00,
2013-05-14 07:23:00,50.2,29.1,-100.00,North,-999,0.0,0.0,44,0.00,,,-99.99,FreeWX-Wi 1.01,2013-05-14 14:23:00,
2013-05-14 07:28:00,50.4,29.3,-100.00,North,-999,0.0,0.0,44,0.00,,,-99.99,FreeWX-Wi 1.01,2013-05-14 14:28:00,
2013-05-14 07:33:00,50.5,28.9,-100.00,North,-999,0.0,0.0,43,0.00,,,-99.99,FreeWX-Wi 1.01,2013-05-14 14:33:00,
2013-05-14 07:38:00,50.7,27.3,-100.00,North,-999,0.0,0.0,40,0.00,,,-99.99,FreeWX-Wi 1.01,2013-05-14 14:38:00,
2013-05-14 07:43:00,51.3,27.9,-100.00,North,-999,0.0,0.0,40,0.00,,,-99.99,FreeWX-Wi 1.01,2013-05-14 14:43:00,
2013-05-14 07:48:00,51.4,27.3,-100.00,North,-999,0.0,0.0,39,0.00,,,-99.99,FreeWX-Wi 1.01,2013-05-14 14:48:00,
2013-05-14 07:53:00,51.8,27.0,-100.00,North,-999,0.0,0.0,38,0.00,,,-99.99,FreeWX-Wi 1.01,2013-05-14 14:53:00,
2013-05-14 07:58:00,52.2,26.6,-100.00,North,-999,0.0,2.7,37,0.00,,,-99.99,FreeWX-Wi 1.01,2013-05-14 14:58:00,
2013-05-14 08:03:00,52.9,27.3,-100.00,North,-999,0.0,0.0,37,0.00,,,-99.99,FreeWX-Wi 1.01,2013-05-14 15:03:00,
2013-05-14 08:09:00,53.1,26.8,-100.00,North,-999,0.0,4.0,36,0.00,,,-99.99,FreeWX-Wi 1.01,2013-05-14 15:09:00,
2013-05-14 08:14:00,53.8,27.5,-100.00,North,-999,0.0,2.7,36,0.00,,,-99.99,FreeWX-Wi 1.01,2013-05-14 15:14:00,
2013-05-14 08:19:00,53.8,27.5,-100.00,North,-999,0.0,0.0,36,0.00,,,-99.99,FreeWX-Wi 1.01,2013-05-14 15:19:00,
2013-05-14 08:24:00,53.6,27.3,-100.00,North,-999,0.0,4.9,36,0.00,,,-99.99,FreeWX-Wi 1.01,2013-05-14 15:24:00,
2013-05-14 08:29:00,53.1,26.8,-100.00,North,-999,0.0,5.8,36,0.00,,,-99.99,FreeWX-Wi 1.01,2013-05-14 15:29:00,
2013-05-14 08:34:00,53.2,27.0,-100.00,North,-999,0.0,4.0,36,0.00,,,-99.99,FreeWX-Wi 1.01,2013-05-14 15:34:00,
2013-05-14 08:39:00,54.3,27.9,-100.00,SE,146,1.0,5.8,36,0.00,,,-99.99,FreeWX-Wi 1.01,2013-05-14 15:39:00,
2013-05-14 08:44:00,55.2,28.8,-100.00,SSE,150,1.0,4.9,36,0.00,,,-99.99,FreeWX-Wi 1.01,2013-05-14 15:44:00,
2013-05-14 08:49:00,55.8,28.6,-100.00,SSE,157,1.0,3.6,35,0.00,,,-99.99,FreeWX-Wi 1.01,2013-05-14 15:49:00,
2013-05-14 08:54:00,56.3,28.9,-100.00,SSE,160,1.0,3.1,35,0.00,,,-99.99,FreeWX-Wi 1.01,2013-05-14 15:54:00,
2013-05-14 08:59:00,56.7,29.3,-100.00,SSE,159,1.0,3.6,35,0.00,,,-99.99,FreeWX-Wi 1.01,2013-05-14 15:59:00,
2013-05-14 09:04:00,57.0,29.7,-100.00,SSE,159,1.0,4.0,35,0.00,,,-99.99,FreeWX-Wi 1.01,2013-05-14 16:04:00,
2013-05-14 09:09:00,57.6,30.2,-100.00,South,171,1.0,3.1,35,0.00,,,-99.99,FreeWX-Wi 1.01,2013-05-14 16:09:00,
2013-05-14 09:14:00,57.9,30.4,-100.00,SSE,150,1.0,3.1,35,0.00,,,-99.99,FreeWX-Wi 1.01,2013-05-14 16:14:00,
2013-05-14 09:19:00,57.2,29.8,-100.00,SSE,150,1.0,0.0,35,0.00,,,-99.99,FreeWX-Wi 1.01,2013-05-14 16:19:00,
2013-05-14 09:24:00,57.6,30.2,-100.00,North,-999,0.0,4.9,35,0.00,,,-99.99,FreeWX-Wi 1.01,2013-05-14 16:24:00,
2013-05-14 09:29:00,57.4,30.0,-100.00,North,-999,0.0,3.6,35,0.00,,,-99.99,FreeWX-Wi 1.01,2013-05-14 16:29:00,
2013-05-14 09:34:00,58.1,30.6,-100.00,North,-999,0.0,3.6,35,0.00,,,-99.99,FreeWX-Wi 1.01,2013-05-14 16:34:00,
2013-05-14 09:39:00,57.7,30.2,-100.00,North,-999,0.0,3.6,35,0.00,,,-99.99,FreeWX-Wi 1.01,2013-05-14 16:39:00,
2013-05-14 09:44:00,57.6,30.2,-100.00,SE,144,1.0,3.1,35,0.00,,,-99.99,FreeWX-Wi 1.01,2013-05-14 16:44:00,
2013-05-14 09:49:00,58.8,31.3,-100.00,North,-999,0.0,2.7,35,0.00,,,-99.99,FreeWX-Wi 1.01,2013-05-14 16:49:00,
2013-05-14 09:54:00,58.5,30.9,-100.00,SE,143,1.0,4.0,35,0.00,,,-99.99,FreeWX-Wi 1.01,2013-05-14 16:54:00,
2013-05-14 09:59:00,59.0,31.5,-100.00,SSE,157,1.0,6.3,35,0.00,,,-99.99,FreeWX-Wi 1.01,2013-05-14 16:59:00,
2013-05-14 10:04:00,59.0,31.5,-100.00,South,176,1.0,5.4,35,0.00,,,-99.99,FreeWX-Wi 1.01,2013-05-14 17:04:00,
2013-05-14 10:09:00,59.2,31.5,-100.00,SSW,196,1.0,8.1,35,0.00,,,-99.99,FreeWX-Wi 1.01,2013-05-14 17:09:00,
2013-05-14 10:14:00,60.4,32.7,-100.00,SSW,195,1.0,5.8,35,0.00,,,-99.99,FreeWX-Wi 1.01,2013-05-14 17:14:00,
2013-05-14 10:19:00,59.4,31.6,-100.00,South,187,1.0,3.1,35,0.00,,,-99.99,FreeWX-Wi 1.01,2013-05-14 17:19:00,
2013-05-14 10:25:00,58.5,30.9,-100.00,SW,230,1.0,5.8,35,0.00,,,-99.99,FreeWX-Wi 1.01,2013-05-14 17:25:00,
2013-05-14 10:30:00,58.1,30.6,-100.00,SW,233,1.0,4.0,35,0.00,,,-99.99,FreeWX-Wi 1.01,2013-05-14 17:30:00,
2013-05-14 10:35:00,57.7,30.2,-100.00,WSW,241,1.0,4.9,35,0.00,,,-99.99,FreeWX-Wi 1.01,2013-05-14 17:35:00,
2013-05-14 10:40:00,57.6,30.2,-100.00,WSW,248,1.0,2.7,35,0.00,,,-99.99,FreeWX-Wi 1.01,2013-05-14 17:40:00,
2013-05-14 10:45:00,58.5,30.9,-100.00,West,266,1.0,0.0,35,0.00,,,-99.99,FreeWX-Wi 1.01,2013-05-14 17:45:00,
2013-05-14 10:50:00,60.8,32.2,-100.00,West,267,1.0,4.0,34,0.00,,,-99.99,FreeWX-Wi 1.01,2013-05-14 17:50:00,
2013-05-14 10:55:00,61.0,32.4,-100.00,North,-999,0.0,4.0,34,0.00,,,-99.99,FreeWX-Wi 1.01,2013-05-14 17:55:00,
2013-05-14 11:00:00,60.8,32.2,-100.00,WSW,256,1.0,4.0,34,0.00,,,-99.99,FreeWX-Wi 1.01,2013-05-14 18:00:00,
2013-05-14 11:05:00,61.0,32.4,-100.00,WSW,247,1.0,4.0,34,0.00,,,-99.99,FreeWX-Wi 1.01,2013-05-14 18:05:00,
2013-05-14 11:10:00,62.6,33.8,-100.00,SW,224,1.0,3.6,34,0.00,,,-99.99,FreeWX-Wi 1.01,2013-05-14 18:10:00,
2013-05-14 11:15:00,64.6,34.9,-100.00,SSW,207,1.0,4.9,33,0.00,,,-99.99,FreeWX-Wi 1.01,2013-05-14 18:15:00,
2013-05-14 11:20:00,63.0,34.2,-100.00,SW,225,1.0,4.0,34,0.00,,,-99.99,FreeWX-Wi 1.01,2013-05-14 18:20:00,
2013-05-14 11:25:00,61.9,33.3,-100.00,SW,220,1.0,0.0,34,0.00,,,-99.99,FreeWX-Wi 1.01,2013-05-14 18:25:00,
2013-05-14 11:30:00,62.6,33.8,-100.00,SSW,213,1.0,4.0,34,0.00,,,-99.99,FreeWX-Wi 1.01,2013-05-14 18:30:00,
2013-05-14 11:35:00,63.7,34.7,-100.00,SSW,204,1.0,5.8,34,0.00,,,-99.99,FreeWX-Wi 1.01,2013-05-14 18:35:00,
2013-05-14 11:40:00,65.3,35.4,-100.00,SW,222,1.0,5.4,33,0.00,,,-99.99,FreeWX-Wi 1.01,2013-05-14 18:40:00,
2013-05-14 11:45:00,69.3,38.8,-100.00,West,265,1.0,2.7,33,0.00,,,-99.99,FreeWX-Wi 1.01,2013-05-14 18:45:00,
2013-05-14 11:50:00,72.7,41.2,-100.00,West,279,1.0,8.1,32,0.00,,,-99.99,FreeWX-Wi 1.01,2013-05-14 18:50:00,
2013-05-14 11:55:00,66.4,36.3,-100.00,NW,308,1.0,5.8,33,0.00,,,-99.99,FreeWX-Wi 1.01,2013-05-14 18:55:00,
2013-05-14 12:00:00,66.2,36.3,-100.00,WNW,303,1.0,4.0,33,0.00,,,-99.99,FreeWX-Wi 1.01,2013-05-14 19:00:00,
2013-05-14 12:05:00,65.5,35.6,-100.00,WNW,297,2.0,3.1,33,0.00,,,-99.99,FreeWX-Wi 1.01,2013-05-14 19:05:00,
2013-05-14 12:10:00,65.5,35.6,-100.00,WNW,293,1.0,4.0,33,0.00,,,-99.99,FreeWX-Wi 1.01,2013-05-14 19:10:00,
2013-05-14 12:15:00,68.9,38.7,-100.00,West,280,2.0,6.3,33,0.00,,,-99.99,FreeWX-Wi 1.01,2013-05-14 19:15:00,
2013-05-14 12:20:00,70.5,39.2,-100.00,WSW,246,2.0,4.0,32,0.00,,,-99.99,FreeWX-Wi 1.01,2013-05-14 19:20:00,
2013-05-14 12:25:00,67.3,37.2,-100.00,WSW,252,2.0,3.1,33,0.00,,,-99.99,FreeWX-Wi 1.01,2013-05-14 19:25:00,
2013-05-14 12:30:00,67.3,37.2,-100.00,WSW,247,2.0,4.0,33,0.00,,,-99.99,FreeWX-Wi 1.01,2013-05-14 19:30:00,
2013-05-14 12:35:00,67.3,37.2,-100.00,WNW,284,1.0,0.0,33,0.00,,,-99.99,FreeWX-Wi 1.01,2013-05-14 19:35:00,
2013-05-14 12:40:00,68.0,37.8,-100.00,NNW,340,1.0,0.0,33,0.00,,,-99.99,FreeWX-Wi 1.01,2013-05-14 19:40:00,
2013-05-14 12:45:00,66.2,36.3,-100.00,NNW,330,1.0,3.6,33,0.00,,,-99.99,FreeWX-Wi 1.01,2013-05-14 19:45:00,
2013-05-14 12:50:00,67.1,37.0,-100.00,North,-999,0.0,3.1,33,0.00,,,-99.99,FreeWX-Wi 1.01,2013-05-14 19:50:00,
2013-05-14 12:55:00,68.2,37.9,-100.00,North,-999,0.0,0.0,33,0.00,,,-99.99,FreeWX-Wi 1.01,2013-05-14 19:55:00,
2013-05-14 13:00:00,71.2,39.9,-100.00,North,-999,0.0,5.4,32,0.00,,,-99.99,FreeWX-Wi 1.01,2013-05-14 20:00:00,
2013-05-14 13:05:00,68.7,38.5,-100.00,North,-999,0.0,4.5,33,0.00,,,-99.99,FreeWX-Wi 1.01,2013-05-14 20:05:00,
2013-05-14 13:10:00,70.5,39.2,-100.00,WNW,282,1.0,3.1,32,0.00,,,-99.99,FreeWX-Wi 1.01,2013-05-14 20:10:00,
2013-05-14 13:15:00,73.9,41.4,-100.00,West,260,1.0,5.4,31,0.00,,,-99.99,FreeWX-Wi 1.01,2013-05-14 20:15:00,
2013-05-14 13:20:00,77.9,44.8,-100.00,WSW,244,1.0,4.0,31,0.00,,,-99.99,FreeWX-Wi 1.01,2013-05-14 20:20:00,
2013-05-14 13:25:00,78.4,45.3,-100.00,SE,126,1.0,0.0,31,0.00,,,-99.99,FreeWX-Wi 1.01,2013-05-14 20:25:00,
2013-05-14 13:30:00,75.9,43.2,-100.00,ENE,71,1.0,3.1,31,0.00,,,-99.99,FreeWX-Wi 1.01,2013-05-14 20:30:00,
2013-05-14 13:36:00,70.5,39.2,-100.00,East,81,1.0,4.0,32,0.00,,,-99.99,FreeWX-Wi 1.01,2013-05-14 20:36:00,
2013-05-14 13:41:00,68.5,38.3,-100.00,East,94,1.0,4.0,33,0.00,,,-99.99,FreeWX-Wi 1.01,2013-05-14 20:41:00,
2013-05-14 13:46:00,67.8,37.6,-100.00,East,79,1.0,4.9,33,0.00,,,-99.99,FreeWX-Wi 1.01,2013-05-14 20:46:00,
2013-05-14 13:51:00,73.2,41.5,-100.00,East,82,1.0,5.4,32,0.00,,,-99.99,FreeWX-Wi 1.01,2013-05-14 20:51:00,
2013-05-14 13:56:00,77.7,44.6,-100.00,East,93,1.0,5.8,31,0.00,,,-99.99,FreeWX-Wi 1.01,2013-05-14 20:56:00,
2013-05-14 14:01:00,78.4,45.3,-100.00,East,87,2.0,3.6,31,0.00,,,-99.99,FreeWX-Wi 1.01,2013-05-14 21:01:00,
2013-05-14 14:06:00,77.4,44.4,-100.00,East,83,2.0,0.0,31,0.00,,,-99.99,FreeWX-Wi 1.01,2013-05-14 21:06:00,
2013-05-14 14:11:00,76.5,43.5,-100.00,East,81,2.0,0.0,31,0.00,,,-99.99,FreeWX-Wi 1.01,2013-05-14 21:11:00,
2013-05-14 14:16:00,73.4,41.0,-100.00,East,81,1.0,2.2,31,0.00,,,-99.99,FreeWX-Wi 1.01,2013-05-14 21:16:00,
2013-05-14 14:22:00,75.9,43.2,-100.00,East,79,1.0,0.0,31,0.00,,,-99.99,FreeWX-Wi 1.01,2013-05-14 21:22:00,
2013-05-14 14:27:00,78.6,45.5,-100.00,East,83,1.0,3.1,31,0.00,,,-99.99,FreeWX-Wi 1.01,2013-05-14 21:27:00,
2013-05-14 14:32:00,77.4,44.4,-100.00,East,83,1.0,0.0,31,0.00,,,-99.99,FreeWX-Wi 1.01,2013-05-14 21:32:00,
2013-05-14 14:37:00,74.1,41.5,-100.00,East,84,1.0,0.0,31,0.00,,,-99.99,FreeWX-Wi 1.01,2013-05-14 21:37:00,
2013-05-14 14:42:00,77.2,44.2,-100.00,ENE,69,1.0,0.0,31,0.00,,,-99.99,FreeWX-Wi 1.01,2013-05-14 21:42:00,
2013-05-14 14:47:00,80.1,45.9,-100.00,East,79,1.0,4.0,30,0.00,,,-99.99,FreeWX-Wi 1.01,2013-05-14 21:47:00,
2013-05-14 14:52:00,79.5,45.3,-100.00,ENE,75,1.0,2.7,30,0.00,,,-99.99,FreeWX-Wi 1.01,2013-05-14 21:52:00,
2013-05-14 14:57:00,72.7,41.2,-100.00,ENE,76,1.0,2.2,32,0.00,,,-99.99,FreeWX-Wi 1.01,2013-05-14 21:57:00,
2013-05-14 15:02:00,68.9,38.7,-100.00,ENE,76,1.0,0.0,33,0.00,,,-99.99,FreeWX-Wi 1.01,2013-05-14 22:02:00,
2013-05-14 15:07:00,66.4,36.3,-100.00,ENE,74,1.0,0.0,33,0.00,,,-99.99,FreeWX-Wi 1.01,2013-05-14 22:07:00,
2013-05-14 15:12:00,67.1,37.0,-100.00,ENE,68,1.0,0.0,33,0.00,,,-99.99,FreeWX-Wi 1.01,2013-05-14 22:12:00,
2013-05-14 15:17:00,71.8,40.3,-100.00,North,-999,0.0,3.6,32,0.00,,,-99.99,FreeWX-Wi 1.01,2013-05-14 22:17:00,
2013-05-14 15:22:00,77.7,44.6,-100.00,North,-999,0.0,4.0,31,0.00,,,-99.99,FreeWX-Wi 1.01,2013-05-14 22:22:00,
2013-05-14 15:27:00,80.4,46.0,-100.00,ENE,76,1.0,3.6,30,0.00,,,-99.99,FreeWX-Wi 1.01,2013-05-14 22:27:00,
2013-05-14 15:32:00,81.3,46.9,-100.00,ENE,75,1.0,4.9,30,0.00,,,-99.99,FreeWX-Wi 1.01,2013-05-14 22:32:00,
2013-05-14 15:37:00,78.8,44.8,-100.00,East,79,1.0,3.1,30,0.00,,,-99.99,FreeWX-Wi 1.01,2013-05-14 22:37:00,
2013-05-14 15:42:00,76.3,43.3,-100.00,ENE,77,1.0,4.9,31,0.00,,,-99.99,FreeWX-Wi 1.01,2013-05-14 22:42:00,
2013-05-14 15:47:00,77.9,44.8,-100.00,ENE,77,2.0,4.0,31,0.00,,,-99.99,FreeWX-Wi 1.01,2013-05-14 22:47:00,
2013-05-14 15:52:00,79.3,45.1,-100.00,ENE,77,2.0,4.0,30,0.00,,,-99.99,FreeWX-Wi 1.01,2013-05-14 22:52:00,
2013-05-14 15:57:00,79.9,45.7,-100.00,East,83,2.0,5.4,30,0.00,,,-99.99,FreeWX-Wi 1.01,2013-05-14 22:57:00,
2013-05-14 16:02:00,79.5,45.3,-100.00,East,86,2.0,4.0,30,0.00,,,-99.99,FreeWX-Wi 1.01,2013-05-14 23:02:00,
2013-05-14 16:07:00,79.3,45.1,-100.00,East,87,2.0,4.9,30,0.00,,,-99.99,FreeWX-Wi 1.01,2013-05-14 23:07:00,
2013-05-14 16:13:00,78.1,45.0,-100.00,East,86,2.0,3.6,31,0.00,,,-99.99,FreeWX-Wi 1.01,2013-05-14 23:13:00,
2013-05-14 16:18:00,77.9,44.8,-100.00,East,85,2.0,3.6,31,0.00,,,-99.99,FreeWX-Wi 1.01,2013-05-14 23:18:00,
2013-05-14 16:23:00,75.2,42.4,-100.00,East,86,2.0,4.9,31,0.00,,,-99.99,FreeWX-Wi 1.01,2013-05-14 23:23:00,
2013-05-14 16:28:00,71.1,39.7,-100.00,East,83,2.0,4.9,32,0.00,,,-99.99,FreeWX-Wi 1.01,2013-05-14 23:28:00,
2013-05-14 16:33:00,68.2,37.9,-100.00,ENE,77,2.0,2.7,33,0.00,,,-99.99,FreeWX-Wi 1.01,2013-05-14 23:33:00,
2013-05-14 16:38:00,66.0,36.1,-100.00,ENE,74,2.0,3.1,33,0.00,,,-99.99,FreeWX-Wi 1.01,2013-05-14 23:38:00,
2013-05-14 16:43:00,64.9,35.1,-100.00,ENE,78,1.0,0.0,33,0.00,,,-99.99,FreeWX-Wi 1.01,2013-05-14 23:43:00,
2013-05-14 16:49:00,63.5,34.7,-100.00,East,80,1.0,3.6,34,0.00,,,-99.99,FreeWX-Wi 1.01,2013-05-14 23:49:00,
2013-05-14 16:54:00,63.3,34.5,-100.00,East,81,1.0,2.7,34,0.00,,,-99.99,FreeWX-Wi 1.01,2013-05-14 23:54:00,
2013-05-14 16:59:00,63.7,34.7,-100.00,North,-999,0.0,0.0,34,0.00,,,-99.99,FreeWX-Wi 1.01,2013-05-14 23:59:00,
2013-05-14 17:04:00,64.2,35.2,-100.00,North,-999,0.0,2.7,34,0.00,,,-99.99,FreeWX-Wi 1.01,2013-05-15 00:04:00,
2013-05-14 17:09:00,64.0,35.1,-100.00,North,-999,0.0,4.9,34,0.00,,,-99.99,FreeWX-Wi 1.01,2013-05-15 00:09:00,
2013-05-14 17:14:00,64.0,35.1,-100.00,North,-999,0.0,2.7,34,0.00,,,-99.99,FreeWX-Wi 1.01,2013-05-15 00:14:00,
2013-05-14 17:19:00,63.9,34.9,-100.00,North,-999,0.0,3.1,34,0.00,,,-99.99,FreeWX-Wi 1.01,2013-05-15 00:19:00,
2013-05-14 17:24:00,63.9,34.9,-100.00,North,-999,0.0,2.2,34,0.00,,,-99.99,FreeWX-Wi 1.01,2013-05-15 00:24:00,
2013-05-14 17:29:00,63.9,34.9,-100.00,North,-999,0.0,3.6,34,0.00,,,-99.99,FreeWX-Wi 1.01,2013-05-15 00:29:00,
2013-05-14 17:34:00,63.9,34.9,-100.00,North,-999,0.0,4.0,34,0.00,,,-99.99,FreeWX-Wi 1.01,2013-05-15 00:34:00,
2013-05-14 17:39:00,64.0,35.1,-100.00,North,-999,0.0,5.8,34,0.00,,,-99.99,FreeWX-Wi 1.01,2013-05-15 00:39:00,
2013-05-14 17:44:00,64.2,35.2,-100.00,ESE,123,1.0,5.8,34,0.00,,,-99.99,FreeWX-Wi 1.01,2013-05-15 00:44:00,
2013-05-14 17:50:00,64.2,35.2,-100.00,NE,55,1.0,6.3,34,0.00,,,-99.99,FreeWX-Wi 1.01,2013-05-15 00:50:00,
2013-05-14 17:55:00,65.5,35.6,-100.00,NW,319,1.0,3.1,33,0.00,,,-99.99,FreeWX-Wi 1.01,2013-05-15 00:55:00,
2013-05-14 18:00:00,70.5,39.2,-100.00,NW,319,1.0,3.6,32,0.00,,,-99.99,FreeWX-Wi 1.01,2013-05-15 01:00:00,
2013-05-14 18:05:00,72.5,41.0,-100.00,NNW,336,1.0,5.4,32,0.00,,,-99.99,FreeWX-Wi 1.01,2013-05-15 01:05:00,
2013-05-14 18:10:00,72.3,40.8,-100.00,NW,321,1.0,3.6,32,0.00,,,-99.99,FreeWX-Wi 1.01,2013-05-15 01:10:00,
2013-05-14 18:15:00,68.9,38.7,-100.00,WNW,288,1.0,4.0,33,0.00,,,-99.99,FreeWX-Wi 1.01,2013-05-15 01:15:00,
2013-05-14 18:20:00,66.0,36.1,-100.00,West,278,1.0,5.4,33,0.00,,,-99.99,FreeWX-Wi 1.01,2013-05-15 01:20:00,
2013-05-14 18:25:00,64.2,35.2,-100.00,WNW,284,1.0,3.1,34,0.00,,,-99.99,FreeWX-Wi 1.01,2013-05-15 01:25:00,
2013-05-14 18:30:00,63.0,34.2,-100.00,WNW,286,1.0,4.0,34,0.00,,,-99.99,FreeWX-Wi 1.01,2013-05-15 01:30:00,
2013-05-14 18:35:00,62.2,33.4,-100.00,WNW,297,1.0,4.0,34,0.00,,,-99.99,FreeWX-Wi 1.01,2013-05-15 01:35:00,
2013-05-14 18:40:00,61.7,33.1,-100.00,NNW,328,1.0,3.1,34,0.00,,,-99.99,FreeWX-Wi 1.01,2013-05-15 01:40:00,
2013-05-14 18:45:00,61.3,32.7,-100.00,North,-999,0.0,0.0,34,0.00,,,-99.99,FreeWX-Wi 1.01,2013-05-15 01:45:00,
2013-05-14 18:50:00,61.0,32.4,-100.00,North,-999,0.0,2.7,34,0.00,,,-99.99,FreeWX-Wi 1.01,2013-05-15 01:50:00,
2013-05-14 18:55:00,60.6,32.9,-100.00,North,-999,0.0,3.1,35,0.00,,,-99.99,FreeWX-Wi 1.01,2013-05-15 01:55:00,
2013-05-14 19:00:00,60.8,32.2,-100.00,North,-999,0.0,0.0,34,0.00,,,-99.99,FreeWX-Wi 1.01,2013-05-15 02:00:00,
2013-05-14 19:05:00,60.4,32.7,-100.00,North,-999,0.0,4.9,35,0.00,,,-99.99,FreeWX-Wi 1.01,2013-05-15 02:05:00,
2013-05-14 19:11:00,60.4,32.7,-100.00,North,-999,0.0,0.0,35,0.00,,,-99.99,FreeWX-Wi 1.01,2013-05-15 02:11:00,
2013-05-14 19:31:00,59.7,32.0,-100.00,North,-999,0.0,0.0,35,0.00,,,-99.99,FreeWX-Wi 1.01,2013-05-15 02:31:00,
2013-05-14 19:46:00,59.0,31.5,-100.00,North,-999,0.0,0.0,35,0.00,,,-99.99,FreeWX-Wi 1.01,2013-05-15 02:46:00,
2013-05-14 20:06:00,57.6,30.2,-100.00,North,-999,0.0,0.0,35,0.00,,,-99.99,FreeWX-Wi 1.01,2013-05-15 03:06:00,
2013-05-14 22:32:00,50.5,25.2,-100.00,North,-999,0.0,0.0,37,0.00,,,-99.99,FreeWX-Wi 1.01,2013-05-15 05:32:00,
2013-05-14 22:38:00,50.5,25.2,-100.00,North,-999,0.0,0.0,37,0.00,,,-99.99,FreeWX-Wi 1.01,2013-05-15 05:38:00,
2013-05-14 22:53:00,49.6,25.2,-100.00,North,-999,0.0,0.0,38,0.00,,,-99.99,FreeWX-Wi 1.01,2013-05-15 05:53:00,
2013-05-14 23:13:00,48.4,23.9,-100.00,North,-999,0.0,0.0,38,0.00,,,-99.99,FreeWX-Wi 1.01,2013-05-15 06:13:00,
2013-05-14 23:18:00,48.2,23.7,-100.00,North,-999,0.0,0.0,38,0.00,,,-99.99,FreeWX-Wi 1.01,2013-05-15 06:18:00,
2013-05-14 23:23:00,48.2,23.7,-100.00,North,-999,0.0,0.0,38,0.00,,,-99.99,FreeWX-Wi 1.01,2013-05-15 06:23:00,
2013-05-14 23:33:00,47.8,24.1,-100.00,North,-999,0.0,0.0,39,0.00,,,-99.99,FreeWX-Wi 1.01,2013-05-15 06:33:00,
2013-05-14 23:53:00,47.1,24.1,-100.00,North,-999,0.0,0.0,40,0.00,,,-99.99,FreeWX-Wi 1.01,2013-05-15 06:53:00,
2013-05-14 23:58:00,47.1,24.1,-100.00,North,-999,0.0,0.0,40,0.00,,,-99.99,FreeWX-Wi 1.01,2013-05-15 06:58:00,